createdAt,value
2023-01-21T09:14:29.041Z,-15.90
2023-01-21T09:19:32.538Z,-15.42
2023-01-21T09:24:36.246Z,-15.65
2023-01-21T09:29:43.649Z,-15.68
2023-01-21T09:34:47.080Z,-15.48
2023-01-21T09:39:50.415Z,-15.51
2023-01-21T09:44:56.969Z,-15.50
2023-01-21T09:50:04.192Z,-15.19
2023-01-21T09:55:13.620Z,-15.47
2023-01-21T10:00:27.160Z,-15.41
2023-01-21T10:05:49.402Z,-15.46
2023-01-21T10:10:59.365Z,-15.33
2023-01-21T10:16:11.003Z,-15.29
2023-01-21T10:21:22.545Z,-15.22
2023-01-21T10:26:28.459Z,-15.20
2023-01-21T10:31:35.106Z,-15.20
2023-01-21T10:37:01.059Z,-15.10
2023-01-21T10:42:11.066Z,-14.92
2023-01-21T10:47:20.853Z,-14.98
2023-01-21T10:52:27.849Z,-14.89
2023-01-21T10:57:40.225Z,-14.74
2023-01-21T11:02:50.393Z,-14.77
2023-01-21T11:07:54.972Z,-14.62
2023-01-21T11:12:58.397Z,-14.61
2023-01-21T11:18:23.243Z,-14.55
2023-01-21T11:23:28.255Z,-14.43
2023-01-21T11:28:31.922Z,-14.40
2023-01-21T11:33:37.855Z,-14.32
2023-01-21T11:38:42.348Z,-14.05
2023-01-21T11:43:54.404Z,-13.79
2023-01-21T11:49:18.176Z,-13.52
2023-01-21T11:54:29.900Z,-13.32
2023-01-21T11:59:37.721Z,-13.27
2023-01-21T12:04:51.879Z,-13.21
2023-01-21T12:10:03.563Z,-13.21
2023-01-21T12:15:17.216Z,-13.04
2023-01-21T12:20:32.370Z,-13.20
2023-01-21T12:25:41.617Z,-13.44
2023-01-21T12:30:50.311Z,-13.43
2023-01-21T12:35:59.874Z,-13.36
2023-01-21T12:41:37.518Z,-13.36
2023-01-21T12:46:49.293Z,-13.41
2023-01-21T12:52:00.221Z,-13.28
2023-01-21T13:02:49.344Z,-13.18
2023-01-21T13:07:54.744Z,-13.35
2023-01-21T13:13:01.309Z,-13.37
2023-01-21T13:18:11.621Z,-13.26
2023-01-21T13:23:20.027Z,-13.43
2023-01-21T13:28:27.794Z,-13.37
2023-01-21T13:33:43.251Z,-13.35
2023-01-21T13:38:50.935Z,-13.50
2023-01-21T13:44:00.999Z,-13.38
2023-01-21T13:49:12.590Z,-13.50
2023-01-21T13:54:30.709Z,-13.52
2023-01-21T13:59:39.485Z,-13.54
2023-01-21T14:04:51.254Z,-13.40
2023-01-21T14:09:56.544Z,-13.29
2023-01-21T14:15:19.765Z,-13.41
2023-01-21T14:20:32.775Z,-13.56
2023-01-21T14:25:48.049Z,-13.57
2023-01-21T14:30:58.890Z,-13.54
2023-01-21T14:36:06.545Z,-13.55
2023-01-21T14:41:14.452Z,-13.44
2023-01-21T14:46:29.041Z,-13.40
2023-01-21T14:51:35.571Z,-13.50
2023-01-21T14:56:42.267Z,-13.35
2023-01-21T15:01:46.973Z,-13.45
2023-01-21T15:06:57.647Z,-13.41
2023-01-21T15:12:03.172Z,-13.40
2023-01-21T15:17:06.574Z,-13.57
2023-01-21T15:22:24.901Z,-13.51
2023-01-21T15:27:28.866Z,-13.62
2023-01-21T15:32:33.261Z,-13.76
2023-01-21T15:37:40.329Z,-14.05
2023-01-21T15:42:48.983Z,-14.43
2023-01-21T15:48:01.084Z,-14.74
2023-01-21T15:53:15.679Z,-14.85
2023-01-21T15:58:25.444Z,-14.93
2023-01-21T16:03:31.645Z,-14.88
2023-01-21T16:08:43.867Z,-15.01
2023-01-21T16:13:51.050Z,-15.22
2023-01-21T16:18:56.390Z,-15.32
2023-01-21T16:24:02.854Z,-15.45
2023-01-21T16:29:11.106Z,-15.47
2023-01-21T16:34:14.531Z,-15.52
2023-01-21T16:39:20.387Z,-15.50
2023-01-21T16:44:23.935Z,-15.51
2023-01-21T16:49:27.556Z,-15.41
2023-01-21T16:54:33.370Z,-15.45
2023-01-21T16:59:39.126Z,-15.45
2023-01-21T17:04:42.657Z,-15.48
2023-01-21T17:09:47.772Z,-15.35
2023-01-21T17:14:56.848Z,-15.39
2023-01-21T17:20:11.380Z,-15.40
2023-01-21T17:25:22.333Z,-15.33
2023-01-21T17:30:31.005Z,-15.31
2023-01-21T17:35:34.633Z,-15.39
2023-01-21T17:40:42.430Z,-15.41
2023-01-21T17:45:47.208Z,-15.48
2023-01-21T17:50:50.604Z,-15.56
2023-01-21T17:55:59.505Z,-15.57
2023-01-21T18:01:03.965Z,-15.65
2023-01-21T18:06:13.860Z,-15.70
2023-01-21T18:11:18.929Z,-15.60
2023-01-21T18:16:22.329Z,-15.63
2023-01-21T18:21:25.755Z,-15.59
2023-01-21T18:26:34.252Z,-15.54
2023-01-21T18:31:37.740Z,-15.54
2023-01-21T18:36:41.525Z,-15.46
2023-01-21T18:41:46.957Z,-15.49
2023-01-21T18:46:50.541Z,-15.51
2023-01-21T18:51:54.002Z,-15.57
2023-01-21T18:56:58.912Z,-15.54
2023-01-21T19:02:02.519Z,-15.54
2023-01-21T19:07:09.869Z,-15.50
2023-01-21T19:12:18.525Z,-15.56
2023-01-21T19:17:25.860Z,-15.53
2023-01-21T19:22:29.200Z,-15.61
2023-01-21T19:27:37.253Z,-15.64
2023-01-21T19:32:40.843Z,-15.72
2023-01-21T19:37:45.324Z,-15.78
2023-01-21T19:42:50.216Z,-15.78
2023-01-21T19:47:54.264Z,-15.69
2023-01-21T19:52:57.778Z,-15.66
2023-01-21T19:58:04.091Z,-15.57
2023-01-21T20:03:07.426Z,-15.44
2023-01-21T20:08:14.825Z,-15.48
2023-01-21T20:13:23.975Z,-15.45
2023-01-21T20:18:29.336Z,-15.42
2023-01-21T20:23:33.367Z,-15.37
2023-01-21T20:28:39.788Z,-15.36
2023-01-21T20:33:44.144Z,-15.33
2023-01-21T20:38:48.195Z,-15.28
2023-01-21T20:43:57.345Z,-15.25
2023-01-21T20:49:02.041Z,-15.21
2023-01-21T20:54:08.033Z,-15.19
2023-01-21T20:59:14.423Z,-15.22
2023-01-21T21:04:18.326Z,-15.18
2023-01-21T21:09:22.240Z,-15.14
2023-01-21T21:14:27.212Z,-15.22
2023-01-21T21:19:30.942Z,-15.16
2023-01-21T21:24:36.661Z,-15.16
2023-01-21T21:29:41.697Z,-15.15
2023-01-21T21:34:45.279Z,-15.12
2023-01-21T21:39:48.800Z,-15.17
2023-01-21T21:44:53.918Z,-15.13
2023-01-21T21:49:57.274Z,-15.24
2023-01-21T21:55:00.730Z,-15.25
2023-01-21T22:00:06.015Z,-15.24
2023-01-21T22:05:11.531Z,-15.20
2023-01-21T22:10:14.936Z,-15.23
2023-01-21T22:15:20.101Z,-15.35
2023-01-21T22:20:23.421Z,-15.32
2023-01-21T22:25:26.751Z,-15.33
2023-01-21T22:30:31.560Z,-15.31
2023-01-21T22:35:37.579Z,-15.34
2023-01-21T22:40:41.110Z,-15.47
